sensor_id;sensor_type;location;lat;lon;timestamp;P1;durP1;ratioP1;P2;durP2;ratioP2
6426;SDS011;3246;42.664;23.308;2023-04-24T00:00:31;7.22;;;6.53;;
6426;SDS011;3246;42.664;23.308;2023-04-24T00:02:58;11.20;;;6.13;;
6426;SDS011;3246;42.664;23.308;2023-04-24T00:05:25;7.00;;;6.32;;
6426;SDS011;3246;42.664;23.308;2023-04-24T00:07:53;8.27;;;6.18;;
6426;SDS011;3246;42.664;23.308;2023-04-24T00:10:20;5.88;;;5.38;;
6426;SDS011;3246;42.664;23.308;2023-04-24T00:12:47;9.95;;;5.68;;
6426;SDS011;3246;42.664;23.308;2023-04-24T00:15:14;9.02;;;6.68;;
6426;SDS011;3246;42.664;23.308;2023-04-24T00:17:41;9.90;;;7.15;;
6426;SDS011;3246;42.664;23.308;2023-04-24T00:20:08;8.65;;;6.20;;
6426;SDS011;3246;42.664;23.308;2023-04-24T00:22:36;6.43;;;5.80;;
6426;SDS011;3246;42.664;23.308;2023-04-24T00:25:04;9.10;;;5.90;;
6426;SDS011;3246;42.664;23.308;2023-04-24T00:27:32;9.13;;;6.47;;
6426;SDS011;3246;42.664;23.308;2023-04-24T00:30:00;6.10;;;5.60;;
6426;SDS011;3246;42.664;23.308;2023-04-24T00:32:26;5.72;;;5.22;;
6426;SDS011;3246;42.664;23.308;2023-04-24T00:34:53;7.22;;;5.78;;
6426;SDS011;3246;42.664;23.308;2023-04-24T00:37:20;7.07;;;5.90;;
6426;SDS011;3246;42.664;23.308;2023-04-24T00:39:47;6.70;;;5.82;;
6426;SDS011;3246;42.664;23.308;2023-04-24T00:42:15;6.28;;;5.43;;
6426;SDS011;3246;42.664;23.308;2023-04-24T00:44:42;6.05;;;5.32;;
6426;SDS011;3246;42.664;23.308;2023-04-24T00:47:09;6.82;;;5.22;;
6426;SDS011;3246;42.664;23.308;2023-04-24T00:49:37;6.22;;;5.55;;
6426;SDS011;3246;42.664;23.308;2023-04-24T00:52:03;5.25;;;4.75;;
6426;SDS011;3246;42.664;23.308;2023-04-24T00:54:33;7.05;;;5.22;;
6426;SDS011;3246;42.664;23.308;2023-04-24T00:57:00;5.00;;;4.57;;
6426;SDS011;3246;42.664;23.308;2023-04-24T00:59:29;6.13;;;4.88;;
6426;SDS011;3246;42.664;23.308;2023-04-24T01:01:56;6.57;;;4.88;;
6426;SDS011;3246;42.664;23.308;2023-04-24T01:04:24;8.80;;;5.28;;
6426;SDS011;3246;42.664;23.308;2023-04-24T01:06:52;6.18;;;4.57;;
6426;SDS011;3246;42.664;23.308;2023-04-24T01:09:21;8.85;;;4.97;;
6426;SDS011;3246;42.664;23.308;2023-04-24T01:11:49;5.80;;;5.25;;
6426;SDS011;3246;42.664;23.308;2023-04-24T01:14:16;5.30;;;4.68;;
6426;SDS011;3246;42.664;23.308;2023-04-24T01:16:44;6.38;;;4.95;;
6426;SDS011;3246;42.664;23.308;2023-04-24T01:19:11;6.40;;;5.18;;
6426;SDS011;3246;42.664;23.308;2023-04-24T01:21:41;9.95;;;4.63;;
6426;SDS011;3246;42.664;23.308;2023-04-24T01:24:10;5.85;;;5.22;;
6426;SDS011;3246;42.664;23.308;2023-04-24T01:26:38;9.60;;;4.20;;
6426;SDS011;3246;42.664;23.308;2023-04-24T01:29:04;4.78;;;4.22;;
6426;SDS011;3246;42.664;23.308;2023-04-24T01:31:31;5.15;;;4.50;;
6426;SDS011;3246;42.664;23.308;2023-04-24T01:33:59;6.32;;;4.63;;
6426;SDS011;3246;42.664;23.308;2023-04-24T01:36:27;6.80;;;5.22;;
6426;SDS011;3246;42.664;23.308;2023-04-24T01:38:56;7.07;;;4.47;;
6426;SDS011;3246;42.664;23.308;2023-04-24T01:41:24;4.10;;;3.80;;
6426;SDS011;3246;42.664;23.308;2023-04-24T01:43:51;5.60;;;5.03;;
6426;SDS011;3246;42.664;23.308;2023-04-24T01:46:18;4.77;;;4.30;;
6426;SDS011;3246;42.664;23.308;2023-04-24T01:48:45;6.82;;;5.50;;
6426;SDS011;3246;42.664;23.308;2023-04-24T01:51:12;6.03;;;4.07;;
6426;SDS011;3246;42.664;23.308;2023-04-24T01:53:39;6.55;;;4.95;;
6426;SDS011;3246;42.664;23.308;2023-04-24T01:56:05;4.60;;;4.20;;
6426;SDS011;3246;42.664;23.308;2023-04-24T01:58:34;5.28;;;4.43;;
6426;SDS011;3246;42.664;23.308;2023-04-24T02:01:01;6.10;;;5.30;;
6426;SDS011;3246;42.664;23.308;2023-04-24T02:03:28;7.28;;;4.85;;
6426;SDS011;3246;42.664;23.308;2023-04-24T02:05:55;4.85;;;4.53;;
6426;SDS011;3246;42.664;23.308;2023-04-24T02:08:22;5.47;;;4.53;;
6426;SDS011;3246;42.664;23.308;2023-04-24T02:10:49;6.53;;;5.05;;
6426;SDS011;3246;42.664;23.308;2023-04-24T02:13:15;9.13;;;4.45;;
6426;SDS011;3246;42.664;23.308;2023-04-24T02:15:44;5.03;;;4.57;;
6426;SDS011;3246;42.664;23.308;2023-04-24T02:18:10;6.65;;;5.13;;
6426;SDS011;3246;42.664;23.308;2023-04-24T02:20:37;8.25;;;5.45;;
6426;SDS011;3246;42.664;23.308;2023-04-24T02:23:04;5.28;;;4.78;;
6426;SDS011;3246;42.664;23.308;2023-04-24T02:25:31;6.07;;;5.53;;
6426;SDS011;3246;42.664;23.308;2023-04-24T02:27:59;7.93;;;5.13;;
6426;SDS011;3246;42.664;23.308;2023-04-24T02:30:26;7.60;;;4.57;;
6426;SDS011;3246;42.664;23.308;2023-04-24T02:32:54;8.70;;;6.00;;
6426;SDS011;3246;42.664;23.308;2023-04-24T02:35:21;5.87;;;5.47;;
6426;SDS011;3246;42.664;23.308;2023-04-24T02:37:48;4.70;;;4.27;;
6426;SDS011;3246;42.664;23.308;2023-04-24T02:40:15;5.23;;;4.70;;
6426;SDS011;3246;42.664;23.308;2023-04-24T02:42:42;6.03;;;4.70;;
6426;SDS011;3246;42.664;23.308;2023-04-24T02:45:09;5.93;;;5.23;;
6426;SDS011;3246;42.664;23.308;2023-04-24T02:47:36;5.53;;;5.03;;
6426;SDS011;3246;42.664;23.308;2023-04-24T02:50:05;6.57;;;5.10;;
6426;SDS011;3246;42.664;23.308;2023-04-24T02:52:33;7.33;;;5.47;;
6426;SDS011;3246;42.664;23.308;2023-04-24T02:54:59;10.80;;;5.82;;
6426;SDS011;3246;42.664;23.308;2023-04-24T02:57:26;6.50;;;5.90;;
6426;SDS011;3246;42.664;23.308;2023-04-24T02:59:53;7.40;;;6.27;;
6426;SDS011;3246;42.664;23.308;2023-04-24T03:02:20;6.23;;;5.47;;
6426;SDS011;3246;42.664;23.308;2023-04-24T03:04:46;7.00;;;6.50;;
6426;SDS011;3246;42.664;23.308;2023-04-24T03:07:15;7.33;;;6.50;;
6426;SDS011;3246;42.664;23.308;2023-04-24T03:09:42;6.73;;;6.03;;
6426;SDS011;3246;42.664;23.308;2023-04-24T03:12:09;6.07;;;5.50;;
6426;SDS011;3246;42.664;23.308;2023-04-24T03:14:35;6.50;;;5.90;;
6426;SDS011;3246;42.664;23.308;2023-04-24T03:17:02;11.93;;;6.87;;
6426;SDS011;3246;42.664;23.308;2023-04-24T03:19:29;7.87;;;7.07;;
6426;SDS011;3246;42.664;23.308;2023-04-24T03:21:56;7.77;;;6.83;;
6426;SDS011;3246;42.664;23.308;2023-04-24T03:24:24;8.17;;;7.50;;
6426;SDS011;3246;42.664;23.308;2023-04-24T03:26:53;6.03;;;5.53;;
6426;SDS011;3246;42.664;23.308;2023-04-24T03:29:21;8.90;;;7.67;;
6426;SDS011;3246;42.664;23.308;2023-04-24T03:31:48;8.60;;;7.73;;
6426;SDS011;3246;42.664;23.308;2023-04-24T03:34:15;32.70;;;29.50;;
6426;SDS011;3246;42.664;23.308;2023-04-24T03:36:42;10.83;;;9.67;;
6426;SDS011;3246;42.664;23.308;2023-04-24T03:39:09;14.47;;;13.07;;
6426;SDS011;3246;42.664;23.308;2023-04-24T03:41:37;9.45;;;8.43;;
6426;SDS011;3246;42.664;23.308;2023-04-24T03:44:04;12.30;;;7.83;;
6426;SDS011;3246;42.664;23.308;2023-04-24T03:46:31;13.95;;;9.07;;
6426;SDS011;3246;42.664;23.308;2023-04-24T03:48:58;11.17;;;7.70;;
6426;SDS011;3246;42.664;23.308;2023-04-24T03:51:24;8.57;;;7.78;;
6426;SDS011;3246;42.664;23.308;2023-04-24T03:53:52;12.00;;;8.27;;
6426;SDS011;3246;42.664;23.308;2023-04-24T03:56:19;9.47;;;8.43;;
6426;SDS011;3246;42.664;23.308;2023-04-24T03:58:48;10.67;;;8.47;;
6426;SDS011;3246;42.664;23.308;2023-04-24T04:01:15;9.13;;;8.27;;
6426;SDS011;3246;42.664;23.308;2023-04-24T04:03:42;11.85;;;8.27;;
6426;SDS011;3246;42.664;23.308;2023-04-24T04:06:09;9.97;;;8.23;;
6426;SDS011;3246;42.664;23.308;2023-04-24T04:08:38;9.10;;;8.30;;
6426;SDS011;3246;42.664;23.308;2023-04-24T04:11:04;10.60;;;8.53;;
6426;SDS011;3246;42.664;23.308;2023-04-24T04:13:31;8.57;;;7.37;;
6426;SDS011;3246;42.664;23.308;2023-04-24T04:15:59;9.30;;;8.30;;
6426;SDS011;3246;42.664;23.308;2023-04-24T04:18:26;9.25;;;7.15;;
6426;SDS011;3246;42.664;23.308;2023-04-24T04:20:53;16.75;;;8.88;;
6426;SDS011;3246;42.664;23.308;2023-04-24T04:23:19;14.73;;;7.63;;
6426;SDS011;3246;42.664;23.308;2023-04-24T04:25:46;8.10;;;7.60;;
6426;SDS011;3246;42.664;23.308;2023-04-24T04:28:13;12.95;;;8.13;;
6426;SDS011;3246;42.664;23.308;2023-04-24T04:30:40;11.32;;;6.70;;
6426;SDS011;3246;42.664;23.308;2023-04-24T04:33:08;11.15;;;5.90;;
6426;SDS011;3246;42.664;23.308;2023-04-24T04:35:35;6.90;;;5.18;;
6426;SDS011;3246;42.664;23.308;2023-04-24T04:38:02;4.75;;;4.28;;
6426;SDS011;3246;42.664;23.308;2023-04-24T04:40:29;4.38;;;4.07;;
6426;SDS011;3246;42.664;23.308;2023-04-24T04:42:56;4.53;;;4.13;;
6426;SDS011;3246;42.664;23.308;2023-04-24T04:45:23;4.73;;;4.20;;
6426;SDS011;3246;42.664;23.308;2023-04-24T04:47:52;7.47;;;4.17;;
6426;SDS011;3246;42.664;23.308;2023-04-24T04:50:21;5.10;;;4.60;;
6426;SDS011;3246;42.664;23.308;2023-04-24T04:52:48;6.40;;;4.13;;
6426;SDS011;3246;42.664;23.308;2023-04-24T04:55:15;5.53;;;4.77;;
6426;SDS011;3246;42.664;23.308;2023-04-24T04:57:42;6.80;;;5.00;;
6426;SDS011;3246;42.664;23.308;2023-04-24T05:00:09;7.77;;;5.17;;
6426;SDS011;3246;42.664;23.308;2023-04-24T05:02:37;5.90;;;5.23;;
6426;SDS011;3246;42.664;23.308;2023-04-24T05:05:04;5.77;;;4.77;;
6426;SDS011;3246;42.664;23.308;2023-04-24T05:07:33;4.77;;;4.27;;
6426;SDS011;3246;42.664;23.308;2023-04-24T05:10:00;9.97;;;4.50;;
6426;SDS011;3246;42.664;23.308;2023-04-24T05:12:26;7.27;;;4.70;;
6426;SDS011;3246;42.664;23.308;2023-04-24T05:14:53;8.05;;;5.18;;
6426;SDS011;3246;42.664;23.308;2023-04-24T05:17:20;8.68;;;5.25;;
6426;SDS011;3246;42.664;23.308;2023-04-24T05:19:47;9.82;;;7.13;;
6426;SDS011;3246;42.664;23.308;2023-04-24T05:22:13;6.07;;;5.57;;
6426;SDS011;3246;42.664;23.308;2023-04-24T05:24:41;6.00;;;5.50;;
6426;SDS011;3246;42.664;23.308;2023-04-24T05:27:08;5.40;;;4.88;;
6426;SDS011;3246;42.664;23.308;2023-04-24T05:29:35;9.75;;;5.22;;
6426;SDS011;3246;42.664;23.308;2023-04-24T05:32:02;6.80;;;5.03;;
6426;SDS011;3246;42.664;23.308;2023-04-24T05:34:28;9.93;;;6.47;;
6426;SDS011;3246;42.664;23.308;2023-04-24T05:36:55;8.45;;;6.35;;
6426;SDS011;3246;42.664;23.308;2023-04-24T05:39:22;15.52;;;8.32;;
6426;SDS011;3246;42.664;23.308;2023-04-24T05:41:51;8.63;;;5.63;;
6426;SDS011;3246;42.664;23.308;2023-04-24T05:44:18;10.95;;;6.10;;
6426;SDS011;3246;42.664;23.308;2023-04-24T05:46:44;9.93;;;6.50;;
6426;SDS011;3246;42.664;23.308;2023-04-24T05:49:11;10.93;;;7.00;;
6426;SDS011;3246;42.664;23.308;2023-04-24T05:51:38;6.75;;;6.07;;
6426;SDS011;3246;42.664;23.308;2023-04-24T05:54:05;12.10;;;6.53;;
6426;SDS011;3246;42.664;23.308;2023-04-24T05:56:32;8.05;;;6.47;;
6426;SDS011;3246;42.664;23.308;2023-04-24T05:59:00;6.57;;;5.82;;
6426;SDS011;3246;42.664;23.308;2023-04-24T06:01:27;14.93;;;6.53;;
6426;SDS011;3246;42.664;23.308;2023-04-24T06:03:54;11.75;;;6.63;;
6426;SDS011;3246;42.664;23.308;2023-04-24T06:06:20;8.57;;;7.75;;
6426;SDS011;3246;42.664;23.308;2023-04-24T06:08:47;6.82;;;6.22;;
6426;SDS011;3246;42.664;23.308;2023-04-24T06:11:14;7.53;;;6.82;;
6426;SDS011;3246;42.664;23.308;2023-04-24T06:13:41;10.43;;;6.53;;
6426;SDS011;3246;42.664;23.308;2023-04-24T06:16:09;11.57;;;7.80;;
6426;SDS011;3246;42.664;23.308;2023-04-24T06:18:36;10.25;;;7.47;;
6426;SDS011;3246;42.664;23.308;2023-04-24T06:21:03;10.05;;;7.43;;
6426;SDS011;3246;42.664;23.308;2023-04-24T06:23:30;8.10;;;7.30;;
6426;SDS011;3246;42.664;23.308;2023-04-24T06:25:58;14.27;;;6.88;;
6426;SDS011;3246;42.664;23.308;2023-04-24T06:28:24;10.68;;;7.55;;
6426;SDS011;3246;42.664;23.308;2023-04-24T06:30:51;12.95;;;8.80;;
6426;SDS011;3246;42.664;23.308;2023-04-24T06:33:20;19.17;;;9.68;;
6426;SDS011;3246;42.664;23.308;2023-04-24T06:35:46;12.15;;;8.15;;
6426;SDS011;3246;42.664;23.308;2023-04-24T06:38:13;11.80;;;7.55;;
6426;SDS011;3246;42.664;23.308;2023-04-24T06:40:41;8.48;;;7.63;;
6426;SDS011;3246;42.664;23.308;2023-04-24T06:43:07;9.95;;;7.32;;
6426;SDS011;3246;42.664;23.308;2023-04-24T06:45:34;10.52;;;7.70;;
6426;SDS011;3246;42.664;23.308;2023-04-24T06:48:01;9.25;;;8.25;;
6426;SDS011;3246;42.664;23.308;2023-04-24T06:50:29;12.63;;;7.15;;
6426;SDS011;3246;42.664;23.308;2023-04-24T06:52:56;13.02;;;7.88;;
6426;SDS011;3246;42.664;23.308;2023-04-24T06:55:23;8.43;;;7.63;;
6426;SDS011;3246;42.664;23.308;2023-04-24T06:57:50;11.27;;;7.80;;
6426;SDS011;3246;42.664;23.308;2023-04-24T07:00:16;9.30;;;7.55;;
6426;SDS011;3246;42.664;23.308;2023-04-24T07:02:43;10.57;;;8.07;;
6426;SDS011;3246;42.664;23.308;2023-04-24T07:05:10;10.35;;;7.30;;
6426;SDS011;3246;42.664;23.308;2023-04-24T07:07:39;11.07;;;7.95;;
6426;SDS011;3246;42.664;23.308;2023-04-24T07:10:06;16.77;;;8.05;;
6426;SDS011;3246;42.664;23.308;2023-04-24T07:12:33;11.02;;;8.55;;
6426;SDS011;3246;42.664;23.308;2023-04-24T07:15:00;12.23;;;7.97;;
6426;SDS011;3246;42.664;23.308;2023-04-24T07:17:28;10.50;;;8.10;;
6426;SDS011;3246;42.664;23.308;2023-04-24T07:19:55;10.95;;;8.65;;
6426;SDS011;3246;42.664;23.308;2023-04-24T07:22:21;11.50;;;7.90;;
6426;SDS011;3246;42.664;23.308;2023-04-24T07:24:49;20.33;;;10.98;;
6426;SDS011;3246;42.664;23.308;2023-04-24T07:27:16;9.30;;;7.85;;
6426;SDS011;3246;42.664;23.308;2023-04-24T07:29:43;8.65;;;7.78;;
6426;SDS011;3246;42.664;23.308;2023-04-24T07:32:10;10.95;;;8.52;;
6426;SDS011;3246;42.664;23.308;2023-04-24T07:34:36;13.77;;;9.35;;
6426;SDS011;3246;42.664;23.308;2023-04-24T07:37:03;9.20;;;7.85;;
6426;SDS011;3246;42.664;23.308;2023-04-24T07:39:30;14.95;;;7.82;;
6426;SDS011;3246;42.664;23.308;2023-04-24T07:41:59;9.52;;;8.60;;
6426;SDS011;3246;42.664;23.308;2023-04-24T07:44:27;9.48;;;8.35;;
6426;SDS011;3246;42.664;23.308;2023-04-24T07:46:54;12.02;;;7.93;;
6426;SDS011;3246;42.664;23.308;2023-04-24T07:49:22;8.60;;;7.80;;
6426;SDS011;3246;42.664;23.308;2023-04-24T07:51:48;12.20;;;6.75;;
6426;SDS011;3246;42.664;23.308;2023-04-24T07:54:15;8.25;;;7.45;;
6426;SDS011;3246;42.664;23.308;2023-04-24T07:56:43;10.20;;;6.97;;
6426;SDS011;3246;42.664;23.308;2023-04-24T07:59:11;11.15;;;7.97;;
6426;SDS011;3246;42.664;23.308;2023-04-24T08:01:38;8.52;;;7.78;;
6426;SDS011;3246;42.664;23.308;2023-04-24T08:04:04;11.50;;;9.10;;
6426;SDS011;3246;42.664;23.308;2023-04-24T08:06:31;12.52;;;8.15;;
6426;SDS011;3246;42.664;23.308;2023-04-24T08:08:59;11.77;;;8.30;;
6426;SDS011;3246;42.664;23.308;2023-04-24T08:11:26;11.70;;;8.15;;
6426;SDS011;3246;42.664;23.308;2023-04-24T08:13:53;12.18;;;7.25;;
6426;SDS011;3246;42.664;23.308;2023-04-24T08:16:21;9.32;;;7.25;;
6426;SDS011;3246;42.664;23.308;2023-04-24T08:18:48;8.45;;;7.60;;
6426;SDS011;3246;42.664;23.308;2023-04-24T08:21:15;7.63;;;6.93;;
6426;SDS011;3246;42.664;23.308;2023-04-24T08:23:44;10.63;;;7.13;;
6426;SDS011;3246;42.664;23.308;2023-04-24T08:26:11;7.70;;;7.00;;
6426;SDS011;3246;42.664;23.308;2023-04-24T08:28:38;7.50;;;6.53;;
6426;SDS011;3246;42.664;23.308;2023-04-24T08:31:05;8.55;;;7.20;;
6426;SDS011;3246;42.664;23.308;2023-04-24T08:33:33;8.20;;;7.53;;
6426;SDS011;3246;42.664;23.308;2023-04-24T08:36:00;6.95;;;6.25;;
6426;SDS011;3246;42.664;23.308;2023-04-24T08:38:28;7.57;;;6.68;;
6426;SDS011;3246;42.664;23.308;2023-04-24T08:40:56;8.40;;;7.35;;
6426;SDS011;3246;42.664;23.308;2023-04-24T08:43:24;8.18;;;6.30;;
6426;SDS011;3246;42.664;23.308;2023-04-24T08:45:52;9.73;;;7.65;;
6426;SDS011;3246;42.664;23.308;2023-04-24T08:48:19;7.93;;;6.88;;
6426;SDS011;3246;42.664;23.308;2023-04-24T08:50:49;9.05;;;6.68;;
6426;SDS011;3246;42.664;23.308;2023-04-24T08:53:17;7.38;;;6.60;;
6426;SDS011;3246;42.664;23.308;2023-04-24T08:55:45;8.13;;;7.43;;
6426;SDS011;3246;42.664;23.308;2023-04-24T08:58:14;7.75;;;7.10;;
6426;SDS011;3246;42.664;23.308;2023-04-24T09:00:42;16.63;;;7.05;;
6426;SDS011;3246;42.664;23.308;2023-04-24T09:03:12;6.40;;;5.80;;
6426;SDS011;3246;42.664;23.308;2023-04-24T09:05:40;6.43;;;5.85;;
6426;SDS011;3246;42.664;23.308;2023-04-24T09:08:12;9.25;;;6.75;;
6426;SDS011;3246;42.664;23.308;2023-04-24T09:10:39;9.75;;;6.38;;
6426;SDS011;3246;42.664;23.308;2023-04-24T09:13:07;7.28;;;6.68;;
6426;SDS011;3246;42.664;23.308;2023-04-24T09:15:35;7.20;;;6.35;;
6426;SDS011;3246;42.664;23.308;2023-04-24T09:18:02;6.15;;;5.65;;
6426;SDS011;3246;42.664;23.308;2023-04-24T09:20:29;9.70;;;6.10;;
6426;SDS011;3246;42.664;23.308;2023-04-24T09:22:56;6.50;;;5.90;;
6426;SDS011;3246;42.664;23.308;2023-04-24T09:25:26;9.15;;;5.75;;
6426;SDS011;3246;42.664;23.308;2023-04-24T09:28:00;7.95;;;6.53;;
6426;SDS011;3246;42.664;23.308;2023-04-24T09:30:28;6.15;;;5.65;;
6426;SDS011;3246;42.664;23.308;2023-04-24T09:33:10;7.68;;;6.13;;
6426;SDS011;3246;42.664;23.308;2023-04-24T09:35:40;6.90;;;6.07;;
6426;SDS011;3246;42.664;23.308;2023-04-24T09:38:08;6.25;;;5.13;;
6426;SDS011;3246;42.664;23.308;2023-04-24T09:40:37;6.78;;;5.32;;
6426;SDS011;3246;42.664;23.308;2023-04-24T09:43:04;7.05;;;6.20;;
6426;SDS011;3246;42.664;23.308;2023-04-24T09:45:34;6.90;;;5.35;;
6426;SDS011;3246;42.664;23.308;2023-04-24T09:48:02;5.60;;;5.07;;
6426;SDS011;3246;42.664;23.308;2023-04-24T09:50:30;7.55;;;5.85;;
6426;SDS011;3246;42.664;23.308;2023-04-24T09:53:01;7.72;;;5.72;;
6426;SDS011;3246;42.664;23.308;2023-04-24T09:55:29;5.70;;;5.28;;
6426;SDS011;3246;42.664;23.308;2023-04-24T09:57:59;12.32;;;5.25;;
6426;SDS011;3246;42.664;23.308;2023-04-24T10:00:31;5.13;;;4.72;;
6426;SDS011;3246;42.664;23.308;2023-04-24T10:02:58;5.43;;;4.60;;
6426;SDS011;3246;42.664;23.308;2023-04-24T10:05:27;5.63;;;4.85;;
6426;SDS011;3246;42.664;23.308;2023-04-24T10:07:57;10.20;;;4.50;;
6426;SDS011;3246;42.664;23.308;2023-04-24T10:10:26;7.00;;;4.95;;
6426;SDS011;3246;42.664;23.308;2023-04-24T10:12:53;8.50;;;5.38;;
6426;SDS011;3246;42.664;23.308;2023-04-24T10:15:22;6.38;;;4.95;;
6426;SDS011;3246;42.664;23.308;2023-04-24T10:17:49;6.20;;;4.53;;
6426;SDS011;3246;42.664;23.308;2023-04-24T10:20:19;5.70;;;3.80;;
6426;SDS011;3246;42.664;23.308;2023-04-24T10:22:47;4.38;;;4.07;;
6426;SDS011;3246;42.664;23.308;2023-04-24T10:25:16;6.40;;;4.70;;
6426;SDS011;3246;42.664;23.308;2023-04-24T10:27:46;9.85;;;4.90;;
6426;SDS011;3246;42.664;23.308;2023-04-24T10:30:13;3.83;;;3.58;;
6426;SDS011;3246;42.664;23.308;2023-04-24T10:32:42;5.90;;;5.05;;
6426;SDS011;3246;42.664;23.308;2023-04-24T10:35:09;14.30;;;4.72;;
6426;SDS011;3246;42.664;23.308;2023-04-24T10:37:38;4.50;;;3.95;;
6426;SDS011;3246;42.664;23.308;2023-04-24T10:40:09;5.50;;;4.70;;
6426;SDS011;3246;42.664;23.308;2023-04-24T10:42:39;6.25;;;5.18;;
6426;SDS011;3246;42.664;23.308;2023-04-24T10:45:15;6.13;;;4.03;;
6426;SDS011;3246;42.664;23.308;2023-04-24T10:47:44;7.28;;;4.03;;
6426;SDS011;3246;42.664;23.308;2023-04-24T10:50:17;8.20;;;6.28;;
6426;SDS011;3246;42.664;23.308;2023-04-24T10:52:44;4.55;;;4.25;;
6426;SDS011;3246;42.664;23.308;2023-04-24T10:55:12;5.22;;;4.90;;
6426;SDS011;3246;42.664;23.308;2023-04-24T10:57:40;12.88;;;4.93;;
6426;SDS011;3246;42.664;23.308;2023-04-24T11:00:27;11.55;;;5.03;;
6426;SDS011;3246;42.664;23.308;2023-04-24T11:02:56;5.32;;;4.82;;
6426;SDS011;3246;42.664;23.308;2023-04-24T11:05:48;6.25;;;4.40;;
6426;SDS011;3246;42.664;23.308;2023-04-24T11:08:21;6.75;;;4.55;;
6426;SDS011;3246;42.664;23.308;2023-04-24T11:11:03;4.65;;;4.25;;
6426;SDS011;3246;42.664;23.308;2023-04-24T11:16:35;4.35;;;4.05;;
6426;SDS011;3246;42.664;23.308;2023-04-24T11:19:06;8.77;;;3.78;;
6426;SDS011;3246;42.664;23.308;2023-04-24T11:21:41;3.95;;;3.53;;
6426;SDS011;3246;42.664;23.308;2023-04-24T11:24:24;6.07;;;3.83;;
6426;SDS011;3246;42.664;23.308;2023-04-24T11:26:52;4.65;;;3.80;;
6426;SDS011;3246;42.664;23.308;2023-04-24T11:29:20;4.43;;;4.13;;
6426;SDS011;3246;42.664;23.308;2023-04-24T11:31:47;6.25;;;4.65;;
6426;SDS011;3246;42.664;23.308;2023-04-24T11:34:18;5.28;;;4.88;;
6426;SDS011;3246;42.664;23.308;2023-04-24T11:36:44;4.32;;;4.03;;
6426;SDS011;3246;42.664;23.308;2023-04-24T11:39:12;4.82;;;4.20;;
6426;SDS011;3246;42.664;23.308;2023-04-24T11:41:39;6.97;;;4.15;;
6426;SDS011;3246;42.664;23.308;2023-04-24T11:44:07;6.40;;;5.53;;
6426;SDS011;3246;42.664;23.308;2023-04-24T11:46:35;4.07;;;3.80;;
6426;SDS011;3246;42.664;23.308;2023-04-24T11:49:03;4.00;;;3.70;;
6426;SDS011;3246;42.664;23.308;2023-04-24T11:51:31;4.32;;;4.00;;
6426;SDS011;3246;42.664;23.308;2023-04-24T11:53:58;6.57;;;4.47;;
6426;SDS011;3246;42.664;23.308;2023-04-24T11:56:25;9.68;;;5.78;;
6426;SDS011;3246;42.664;23.308;2023-04-24T11:58:52;5.57;;;4.45;;
6426;SDS011;3246;42.664;23.308;2023-04-24T12:01:19;4.45;;;4.15;;
6426;SDS011;3246;42.664;23.308;2023-04-24T12:03:47;4.05;;;3.75;;
6426;SDS011;3246;42.664;23.308;2023-04-24T12:06:16;4.38;;;4.07;;
6426;SDS011;3246;42.664;23.308;2023-04-24T12:08:46;5.00;;;4.60;;
6426;SDS011;3246;42.664;23.308;2023-04-24T12:11:15;4.43;;;4.07;;
6426;SDS011;3246;42.664;23.308;2023-04-24T12:13:44;7.20;;;5.00;;
6426;SDS011;3246;42.664;23.308;2023-04-24T12:16:11;9.57;;;4.20;;
6426;SDS011;3246;42.664;23.308;2023-04-24T12:18:41;7.13;;;5.45;;
6426;SDS011;3246;42.664;23.308;2023-04-24T12:21:15;4.28;;;4.03;;
6426;SDS011;3246;42.664;23.308;2023-04-24T12:23:47;5.00;;;4.43;;
6426;SDS011;3246;42.664;23.308;2023-04-24T12:26:16;4.32;;;3.92;;
6426;SDS011;3246;42.664;23.308;2023-04-24T12:28:46;4.20;;;3.90;;
6426;SDS011;3246;42.664;23.308;2023-04-24T12:31:14;5.03;;;3.55;;
6426;SDS011;3246;42.664;23.308;2023-04-24T12:33:41;4.32;;;3.25;;
6426;SDS011;3246;42.664;23.308;2023-04-24T12:36:09;4.47;;;3.67;;
6426;SDS011;3246;42.664;23.308;2023-04-24T12:38:37;4.07;;;3.65;;
6426;SDS011;3246;42.664;23.308;2023-04-24T12:41:08;6.93;;;4.32;;
6426;SDS011;3246;42.664;23.308;2023-04-24T12:43:36;4.88;;;4.10;;
6426;SDS011;3246;42.664;23.308;2023-04-24T12:46:03;4.30;;;3.97;;
6426;SDS011;3246;42.664;23.308;2023-04-24T12:48:31;2.88;;;2.72;;
6426;SDS011;3246;42.664;23.308;2023-04-24T12:50:57;3.50;;;3.30;;
6426;SDS011;3246;42.664;23.308;2023-04-24T12:53:26;4.47;;;3.03;;
6426;SDS011;3246;42.664;23.308;2023-04-24T12:55:55;5.95;;;2.92;;
6426;SDS011;3246;42.664;23.308;2023-04-24T12:58:23;7.22;;;3.53;;
6426;SDS011;3246;42.664;23.308;2023-04-24T13:00:50;13.35;;;11.65;;
6426;SDS011;3246;42.664;23.308;2023-04-24T13:03:17;4.75;;;3.60;;
6426;SDS011;3246;42.664;23.308;2023-04-24T13:05:44;4.13;;;3.58;;
6426;SDS011;3246;42.664;23.308;2023-04-24T13:08:11;4.57;;;4.20;;
6426;SDS011;3246;42.664;23.308;2023-04-24T13:10:39;3.70;;;3.40;;
6426;SDS011;3246;42.664;23.308;2023-04-24T13:13:06;3.72;;;3.42;;
6426;SDS011;3246;42.664;23.308;2023-04-24T13:15:35;4.35;;;3.95;;
6426;SDS011;3246;42.664;23.308;2023-04-24T13:18:02;4.85;;;3.65;;
6426;SDS011;3246;42.664;23.308;2023-04-24T13:20:29;4.38;;;3.40;;
6426;SDS011;3246;42.664;23.308;2023-04-24T13:22:56;6.30;;;3.42;;
6426;SDS011;3246;42.664;23.308;2023-04-24T13:25:23;3.67;;;3.30;;
6426;SDS011;3246;42.664;23.308;2023-04-24T13:27:50;3.90;;;3.55;;
6426;SDS011;3246;42.664;23.308;2023-04-24T13:30:17;3.10;;;2.90;;
6426;SDS011;3246;42.664;23.308;2023-04-24T13:32:45;4.15;;;3.85;;
6426;SDS011;3246;42.664;23.308;2023-04-24T13:35:12;4.35;;;4.00;;
6426;SDS011;3246;42.664;23.308;2023-04-24T13:37:38;5.28;;;3.45;;
6426;SDS011;3246;42.664;23.308;2023-04-24T13:40:06;5.05;;;3.40;;
6426;SDS011;3246;42.664;23.308;2023-04-24T13:42:33;3.25;;;3.05;;
6426;SDS011;3246;42.664;23.308;2023-04-24T13:45:00;4.35;;;4.00;;
6426;SDS011;3246;42.664;23.308;2023-04-24T13:47:27;4.50;;;3.72;;
6426;SDS011;3246;42.664;23.308;2023-04-24T13:49:55;5.22;;;4.13;;
6426;SDS011;3246;42.664;23.308;2023-04-24T13:52:22;6.07;;;4.13;;
6426;SDS011;3246;42.664;23.308;2023-04-24T13:54:49;5.10;;;4.50;;
6426;SDS011;3246;42.664;23.308;2023-04-24T13:57:15;3.72;;;3.25;;
6426;SDS011;3246;42.664;23.308;2023-04-24T13:59:42;3.83;;;2.90;;
6426;SDS011;3246;42.664;23.308;2023-04-24T14:02:10;4.00;;;3.60;;
6426;SDS011;3246;42.664;23.308;2023-04-24T14:04:36;3.42;;;3.13;;
6426;SDS011;3246;42.664;23.308;2023-04-24T14:07:05;5.13;;;2.92;;
6426;SDS011;3246;42.664;23.308;2023-04-24T14:09:33;5.85;;;4.05;;
6426;SDS011;3246;42.664;23.308;2023-04-24T14:11:59;3.00;;;2.80;;
6426;SDS011;3246;42.664;23.308;2023-04-24T14:14:28;4.28;;;3.47;;
6426;SDS011;3246;42.664;23.308;2023-04-24T14:16:55;4.13;;;3.05;;
6426;SDS011;3246;42.664;23.308;2023-04-24T14:19:22;3.17;;;2.75;;
6426;SDS011;3246;42.664;23.308;2023-04-24T14:21:49;6.30;;;3.55;;
6426;SDS011;3246;42.664;23.308;2023-04-24T14:24:17;9.23;;;4.15;;
6426;SDS011;3246;42.664;23.308;2023-04-24T14:26:44;3.42;;;3.10;;
6426;SDS011;3246;42.664;23.308;2023-04-24T14:29:10;4.40;;;3.42;;
6426;SDS011;3246;42.664;23.308;2023-04-24T14:31:37;3.30;;;3.05;;
6426;SDS011;3246;42.664;23.308;2023-04-24T14:34:04;6.28;;;3.72;;
6426;SDS011;3246;42.664;23.308;2023-04-24T14:36:31;5.10;;;3.97;;
6426;SDS011;3246;42.664;23.308;2023-04-24T14:38:58;7.85;;;4.63;;
6426;SDS011;3246;42.664;23.308;2023-04-24T14:41:28;3.25;;;2.92;;
6426;SDS011;3246;42.664;23.308;2023-04-24T14:43:55;3.38;;;3.08;;
6426;SDS011;3246;42.664;23.308;2023-04-24T14:46:22;3.58;;;3.25;;
6426;SDS011;3246;42.664;23.308;2023-04-24T14:48:50;3.45;;;3.15;;
6426;SDS011;3246;42.664;23.308;2023-04-24T14:51:16;4.85;;;3.22;;
6426;SDS011;3246;42.664;23.308;2023-04-24T14:53:43;3.50;;;3.30;;
6426;SDS011;3246;42.664;23.308;2023-04-24T14:56:11;4.25;;;3.60;;
6426;SDS011;3246;42.664;23.308;2023-04-24T14:58:39;3.33;;;3.13;;
6426;SDS011;3246;42.664;23.308;2023-04-24T15:01:06;4.13;;;3.83;;
6426;SDS011;3246;42.664;23.308;2023-04-24T15:03:33;4.10;;;3.75;;